Yorkshire, OH

11:11 AM EST on December 29, 2014 (GMT -0500)
Mangen Rd. | Change Station
CLOSE
Current Station
Personal Weather Station
Location: Yorkshire, OH
Elevation: 980 ft
Nearby Weather Stations

Elev 980 ft 40.33 °N, 84.50 °W | Updated 51 seconds ago

Clear
Clear
31.3 °F
Feels Like 25 °F
N
7.0
Wind Variable Wind from NNE
Gusts 8.0 mph

Today
High -- | Low -- °F
--% Chance of Precip.
Yesterday
High -- | Low -- °F
Precip. -- in
8:00 AM 5:19 PM
First Quarter, 60% visible
Pressure 30.31 in
Visibility 10.0 miles
Clouds Clear
Windchill 25 °F
Dew Point 26 °F
Humidity 81%
Rainfall 0.00 in
Snow Depth Not available.
UV 2 out of 12
Pollen .10 out of 12
Air Quality Not available.
Flu Activity Not available.
METAR KVES 291555Z AUTO 04007KT 10SM CLR M01/M03 A3031 RMK AO2

More Conditions Fewer Conditions

Pressure 30.31 in
Visibility 10.0 miles
Clouds Clear
Windchill 25 °F
Dew Point 26 °F
Humidity 81%
Rainfall 0.00 in
Snow Depth Not available.
UV 2 out of 12
Pollen .10 out of 12
Air Quality Not available.
Flu Activity Not available.
METAR KVES 291555Z AUTO 04007KT 10SM CLR M01/M03 A3031 RMK AO2

More Conditions Fewer Conditions

10-Day Weather Forecast

Almanac

Astronomy

Dec. 29, 2014 Rise Set
Actual Time
Civil Twilight
Nautical Twilight
Astronomical Twilight
Moon
Length of Visible Light
Length of Day
Tomorrow will be .
, % of the Moon is Illuminated

Today's Extremes

State Highs State Lows

Community

WunderPhotos

Upload Photos

1,781,627 photos uploaded!

WunderBlogs® & News

Nearby

Air Quality

  Air Quality AQ Index Pollutant
Not available.

Snow Depth

Station Depth Elevation

Earthquake Activity

City Distance Mag. Time & Date
Minimum magnitude displayed is 2.5.

Coastal Water Temperatures

Place Temperature

Nearby Weather Stations